createdAt,value
2019-05-16T00:00:50.249Z,1.5
2019-05-16T00:01:50.394Z,1.4
2019-05-16T00:02:50.532Z,1.4
2019-05-16T00:03:50.630Z,1.2
2019-05-16T00:04:50.794Z,1.5
2019-05-16T00:05:54.331Z,1.5
2019-05-16T00:06:51.847Z,1.3
2019-05-16T00:07:50.994Z,1.2
2019-05-16T00:08:51.124Z,1.3
2019-05-16T00:09:51.240Z,1.3
2019-05-16T00:10:51.481Z,1.3
2019-05-16T00:11:51.426Z,1.1
2019-05-16T00:12:51.580Z,1
2019-05-16T00:13:51.693Z,1.2
2019-05-16T00:14:51.825Z,1.2
2019-05-16T00:15:51.991Z,1.1
2019-05-16T00:16:52.964Z,1.2
2019-05-16T00:19:52.208Z,1.2
2019-05-16T00:20:52.313Z,1.2
2019-05-16T00:21:52.486Z,1.2
2019-05-16T00:22:52.469Z,1
2019-05-16T00:25:52.723Z,1
2019-05-16T00:26:52.893Z,1.5
2019-05-16T00:27:52.915Z,2.9
2019-05-16T00:28:52.897Z,2
2019-05-16T00:29:53.036Z,2.6
2019-05-16T00:30:53.189Z,1.8
2019-05-16T00:31:53.309Z,1.2
2019-05-16T00:32:53.446Z,1.1
2019-05-16T00:33:53.617Z,1.1
2019-05-16T00:34:54.592Z,1
2019-05-16T00:36:02.437Z,0.9
2019-05-16T00:36:54.810Z,1
2019-05-16T00:39:54.157Z,1
2019-05-16T00:40:55.266Z,1
2019-05-16T00:41:55.414Z,1.3
2019-05-16T00:42:55.535Z,0.9
2019-05-16T00:43:57.605Z,1
2019-05-16T00:44:54.783Z,1
2019-05-16T00:45:55.908Z,1.1
2019-05-16T00:46:58.043Z,1
2019-05-16T00:48:56.294Z,1
2019-05-16T00:50:55.390Z,1
2019-05-16T00:51:58.408Z,1.3
2019-05-16T00:52:55.624Z,1.1
2019-05-16T00:53:58.463Z,1.2
2019-05-16T00:54:57.833Z,1.2
2019-05-16T00:55:55.846Z,1
2019-05-16T00:56:57.782Z,1
2019-05-16T00:57:58.186Z,0.9
2019-05-16T00:58:56.285Z,1.1
2019-05-16T00:59:56.246Z,1
2019-05-16T01:00:56.393Z,1.1
2019-05-16T01:01:58.614Z,0.9
2019-05-16T01:02:57.820Z,0.9
2019-05-16T01:03:58.559Z,1.1
2019-05-16T01:04:58.829Z,1.2
2019-05-16T01:05:58.187Z,1
2019-05-16T01:06:58.483Z,1
2019-05-16T01:07:58.433Z,1
2019-05-16T01:08:57.934Z,1.1
2019-05-16T01:09:58.263Z,1.3
2019-05-16T01:10:58.626Z,1.1
2019-05-16T01:11:57.973Z,1.1
2019-05-16T01:12:58.459Z,1.1
2019-05-16T01:13:57.952Z,0.9
2019-05-16T01:14:58.402Z,1
2019-05-16T01:15:58.133Z,1.1
2019-05-16T01:16:58.219Z,1
2019-05-16T01:17:58.809Z,1.1
2019-05-16T01:18:58.957Z,1
2019-05-16T01:19:58.524Z,0.9
2019-05-16T01:20:58.790Z,1.2
2019-05-16T01:21:59.063Z,1
2019-05-16T01:22:58.883Z,1
2019-05-16T01:23:59.083Z,1.2
2019-05-16T01:24:59.098Z,1.1
2019-05-16T01:25:59.068Z,1
2019-05-16T01:26:59.211Z,1.3
2019-05-16T01:27:59.329Z,1.1
2019-05-16T01:28:59.451Z,1
2019-05-16T01:29:59.574Z,1.1
2019-05-16T01:30:59.707Z,1
2019-05-16T01:31:59.820Z,1
2019-05-16T01:32:59.919Z,1.3
2019-05-16T01:34:00.037Z,1.3
2019-05-16T01:35:00.179Z,1.3
2019-05-16T01:36:00.302Z,1.1
2019-05-16T01:37:00.529Z,1.2
2019-05-16T01:38:00.472Z,1.1
2019-05-16T01:39:00.564Z,1.2
2019-05-16T01:40:00.712Z,1.1
2019-05-16T01:41:00.816Z,1
2019-05-16T01:42:00.917Z,1
2019-05-16T01:43:01.031Z,1
2019-05-16T01:44:01.146Z,1.9
2019-05-16T01:45:01.345Z,1.5
2019-05-16T01:46:01.293Z,1.4
2019-05-16T01:47:01.396Z,1
2019-05-16T01:48:01.495Z,1.3
2019-05-16T01:49:01.598Z,1
2019-05-16T01:50:01.775Z,1.1
2019-05-16T01:51:01.722Z,1
2019-05-16T01:52:01.830Z,1
2019-05-16T01:53:02.003Z,1
2019-05-16T01:54:02.071Z,1.2
2019-05-16T01:55:02.201Z,1.1
2019-05-16T01:56:02.308Z,1.2
2019-05-16T01:57:02.418Z,1.2
2019-05-16T01:58:02.530Z,1.2
2019-05-16T01:59:02.653Z,1.1
2019-05-16T02:00:02.831Z,1.1
2019-05-16T02:01:12.115Z,1.3
2019-05-16T02:02:02.885Z,1
2019-05-16T02:03:03.000Z,1.3
2019-05-16T02:04:03.129Z,1.2
2019-05-16T02:05:03.290Z,0.9
2019-05-16T02:06:03.242Z,1.1
2019-05-16T02:07:03.335Z,1.2
2019-05-16T02:08:03.459Z,1.1
2019-05-16T02:09:03.571Z,1.1
2019-05-16T02:10:03.710Z,1.2
2019-05-16T02:11:03.832Z,1
2019-05-16T02:12:03.936Z,0.9
2019-05-16T02:13:04.042Z,1.1
2019-05-16T02:14:04.160Z,1
2019-05-16T02:15:04.304Z,1.1
2019-05-16T02:16:05.425Z,1.1
2019-05-16T02:17:04.547Z,1.1
2019-05-16T02:18:07.994Z,1
2019-05-16T02:19:04.747Z,1.2
2019-05-16T02:20:04.847Z,1.2
2019-05-16T02:21:07.835Z,1.2
2019-05-16T02:22:05.076Z,1.2
2019-05-16T02:23:08.004Z,1.1
2019-05-16T02:24:05.276Z,1.1
2019-05-16T02:25:07.706Z,1
2019-05-16T02:26:07.821Z,0.9
2019-05-16T02:27:09.331Z,1.2
2019-05-16T02:30:06.894Z,1.1
2019-05-16T02:31:07.033Z,1.2
2019-05-16T02:32:07.126Z,1
2019-05-16T02:33:07.227Z,1.1
2019-05-16T02:34:07.358Z,1.1
2019-05-16T02:35:07.468Z,1.1
2019-05-16T02:36:10.663Z,1.1
2019-05-16T02:37:19.859Z,1.1
2019-05-16T02:40:07.757Z,0.9
2019-05-16T02:41:10.505Z,1.2
2019-05-16T02:42:06.887Z,1.3
2019-05-16T02:43:07.994Z,1.2
2019-05-16T02:44:08.101Z,1.2
2019-05-16T02:45:10.924Z,1.2
2019-05-16T02:46:07.421Z,1
2019-05-16T02:47:10.757Z,1.1
2019-05-16T02:50:07.639Z,1.3
2019-05-16T02:51:10.973Z,1.2
2019-05-16T02:52:10.552Z,1.1
2019-05-16T02:53:12.546Z,1.1
2019-05-16T02:54:10.943Z,1.3
2019-05-16T02:55:11.295Z,1.3
2019-05-16T02:56:12.114Z,1.2
2019-05-16T02:57:11.100Z,1.3
2019-05-16T03:00:12.052Z,1.2
2019-05-16T03:01:10.924Z,1.3
2019-05-16T03:02:11.364Z,1.1
2019-05-16T03:03:11.904Z,1.3
2019-05-16T03:04:11.007Z,1.2
2019-05-16T03:05:11.944Z,1.3
2019-05-16T03:06:11.105Z,1.6
2019-05-16T03:08:11.915Z,1.2
2019-05-16T03:10:11.058Z,1.2
2019-05-16T03:11:11.797Z,1.1
2019-05-16T03:12:10.684Z,1.2
2019-05-16T03:13:11.112Z,1.2
2019-05-16T03:14:11.170Z,1.3
2019-05-16T03:15:10.900Z,1.4
2019-05-16T03:16:11.668Z,1.1
2019-05-16T03:17:11.329Z,1.1
2019-05-16T03:18:11.417Z,1.4
2019-05-16T03:19:11.257Z,1.1
2019-05-16T03:20:10.905Z,1.3
2019-05-16T03:21:11.226Z,1
2019-05-16T03:22:11.632Z,1.3
2019-05-16T03:23:11.409Z,1.1
2019-05-16T03:24:11.329Z,1.1
2019-05-16T03:25:11.380Z,1.2
2019-05-16T03:26:11.671Z,1.1
2019-05-16T03:27:11.015Z,1.1
2019-05-16T03:28:11.204Z,1.4
2019-05-16T03:29:11.413Z,2.2
2019-05-16T03:30:15.211Z,1.5
2019-05-16T03:31:14.710Z,2.1
2019-05-16T03:32:13.822Z,1.7
2019-05-16T03:33:16.764Z,1.4
2019-05-16T03:34:15.798Z,1.3
2019-05-16T03:35:15.113Z,1.3
2019-05-16T03:36:14.500Z,1.2
2019-05-16T03:37:14.021Z,1.2
2019-05-16T03:40:11.281Z,1.3
2019-05-16T03:41:11.693Z,1.1
2019-05-16T03:42:12.665Z,1.2
2019-05-16T03:43:11.775Z,1.2
2019-05-16T03:44:11.562Z,1
2019-05-16T03:45:11.597Z,1.2
2019-05-16T03:46:12.089Z,1.1
2019-05-16T03:47:11.673Z,1.2
2019-05-16T03:48:12.174Z,1.3
2019-05-16T03:49:11.769Z,1.1
2019-05-16T03:50:11.807Z,1.3
2019-05-16T03:51:11.851Z,1.2
2019-05-16T03:52:12.893Z,1.1
2019-05-16T03:53:11.994Z,1.3
2019-05-16T03:54:12.718Z,1.3
2019-05-16T03:55:12.105Z,1.2
2019-05-16T03:56:12.155Z,1.2
2019-05-16T03:57:12.207Z,1.5
2019-05-16T03:58:12.291Z,1.1
2019-05-16T03:59:12.333Z,1.2
2019-05-16T04:00:12.458Z,1.1
2019-05-16T04:01:12.418Z,1.3
2019-05-16T04:02:12.476Z,1.1
2019-05-16T04:03:12.546Z,1.3
2019-05-16T04:04:12.598Z,1.2
2019-05-16T04:05:12.637Z,1.3
2019-05-16T04:06:12.713Z,1.2
2019-05-16T04:07:12.765Z,1.1
2019-05-16T04:08:19.171Z,1.3
2019-05-16T04:09:12.886Z,1.2
2019-05-16T04:10:13.933Z,1.1
2019-05-16T04:11:12.995Z,1.4
2019-05-16T04:12:13.043Z,1.2
2019-05-16T04:13:13.149Z,1.2
2019-05-16T04:14:13.211Z,1.4
2019-05-16T04:15:13.282Z,1.2
2019-05-16T04:16:13.330Z,1.2
2019-05-16T04:17:13.384Z,1.4
2019-05-16T04:18:13.465Z,1.2
2019-05-16T04:19:13.547Z,1.2
2019-05-16T04:20:13.609Z,0.9
2019-05-16T04:21:13.660Z,1.1
2019-05-16T04:22:13.727Z,1
2019-05-16T04:23:13.787Z,1
2019-05-16T04:24:13.882Z,1.1
2019-05-16T04:25:13.906Z,1.2
2019-05-16T04:26:13.952Z,1.5
2019-05-16T04:27:14.002Z,1.3
2019-05-16T04:28:14.093Z,1.1
2019-05-16T04:29:14.162Z,1.1
2019-05-16T04:30:14.204Z,1.1
2019-05-16T04:31:14.263Z,1.3
2019-05-16T04:32:14.350Z,1.1
2019-05-16T04:33:14.402Z,1.1
2019-05-16T04:34:14.489Z,0.9
2019-05-16T04:35:14.542Z,1.1
2019-05-16T04:36:14.593Z,1.4
2019-05-16T04:37:14.651Z,1.1
2019-05-16T04:38:30.136Z,1.2
2019-05-16T04:39:14.735Z,1.5
2019-05-16T04:40:14.820Z,1.3
2019-05-16T04:41:14.864Z,1.2
2019-05-16T04:42:14.921Z,1.3
2019-05-16T04:43:14.990Z,1.3
2019-05-16T04:44:15.045Z,1.1
2019-05-16T04:45:15.108Z,1.2
2019-05-16T04:46:15.176Z,1.2
2019-05-16T04:47:15.256Z,1.4
2019-05-16T04:48:15.313Z,1
2019-05-16T04:49:15.418Z,1.1
2019-05-16T04:50:15.522Z,1.2
2019-05-16T04:51:15.572Z,1.5
2019-05-16T04:52:15.638Z,1.3
2019-05-16T04:53:15.695Z,1.3
2019-05-16T04:54:15.799Z,1.2
2019-05-16T04:55:15.864Z,1
2019-05-16T04:56:15.912Z,1.2
2019-05-16T04:57:15.988Z,1.4
2019-05-16T04:58:16.022Z,1.1
2019-05-16T04:59:16.958Z,1
2019-05-16T05:00:16.168Z,1.2
2019-05-16T05:01:16.219Z,1.5
2019-05-16T05:02:16.271Z,1.2
2019-05-16T05:03:16.338Z,1.1
2019-05-16T05:04:16.370Z,1.1
2019-05-16T05:05:16.454Z,1.1
2019-05-16T05:06:16.510Z,1.2
2019-05-16T05:07:16.565Z,1.1
2019-05-16T05:08:16.618Z,1.2
2019-05-16T05:09:16.678Z,1.1
2019-05-16T05:10:16.792Z,1.1
2019-05-16T05:11:16.827Z,1.3
2019-05-16T05:12:16.866Z,1.4
2019-05-16T05:13:16.913Z,1.3
2019-05-16T05:14:16.995Z,1.2
2019-05-16T05:15:17.068Z,1.2
2019-05-16T05:16:20.026Z,1.5
2019-05-16T05:17:17.175Z,1.5
2019-05-16T05:18:17.266Z,1.3
2019-05-16T05:19:20.019Z,1.3
2019-05-16T05:20:17.404Z,1.5
2019-05-16T05:21:17.503Z,1.1
2019-05-16T05:22:19.756Z,1.3
2019-05-16T05:23:17.625Z,1.1
2019-05-16T05:24:19.604Z,1.4
2019-05-16T05:25:20.236Z,1.3
2019-05-16T05:26:19.913Z,1.2
2019-05-16T05:27:19.712Z,1.5
2019-05-16T05:28:17.879Z,1.3
2019-05-16T05:29:19.972Z,1.3
2019-05-16T05:30:19.750Z,1.3
2019-05-16T05:31:23.831Z,1.3
2019-05-16T05:32:19.987Z,1.4
2019-05-16T05:33:20.599Z,1.3
2019-05-16T05:34:19.848Z,1.4
2019-05-16T05:35:20.509Z,1.1
2019-05-16T05:36:20.794Z,1.4
2019-05-16T05:37:20.377Z,1.3
2019-05-16T05:38:21.047Z,1.5
2019-05-16T05:39:19.995Z,1.2
2019-05-16T05:40:20.035Z,1.4
2019-05-16T05:41:19.842Z,1.3
2019-05-16T05:42:19.874Z,1.3
2019-05-16T05:43:21.132Z,1.3
2019-05-16T05:44:20.303Z,1.3
2019-05-16T05:45:20.080Z,1.6
2019-05-16T05:46:20.416Z,1.3
2019-05-16T05:47:19.960Z,1.3
2019-05-16T05:48:21.476Z,1.3
2019-05-16T05:49:20.442Z,1.3
2019-05-16T05:50:20.117Z,1.3
2019-05-16T05:51:20.667Z,1.4
2019-05-16T05:52:20.745Z,1.5
2019-05-16T05:53:20.704Z,1.5
2019-05-16T05:54:20.333Z,1.6
2019-05-16T05:55:19.968Z,1.3
2019-05-16T06:10:21.652Z,1.4
2019-05-16T06:11:20.835Z,1.2
2019-05-16T06:12:21.836Z,1.4
2019-05-16T06:13:21.112Z,1.4
2019-05-16T06:14:21.342Z,1.3
2019-05-16T06:15:20.971Z,1.3
2019-05-16T06:16:21.184Z,1.5
2019-05-16T06:17:21.195Z,1.5
2019-05-16T06:18:21.183Z,1.6
2019-05-16T06:19:21.190Z,1.5
2019-05-16T06:20:21.224Z,1.3
2019-05-16T06:21:21.283Z,1.7
2019-05-16T06:22:21.284Z,1.4
2019-05-16T06:23:21.315Z,1.8
2019-05-16T06:24:21.423Z,1.4
2019-05-16T06:25:22.567Z,1.9
2019-05-16T06:26:21.757Z,1.8
2019-05-16T06:27:21.755Z,1.6
2019-05-16T06:28:21.750Z,1.7
2019-05-16T06:29:21.741Z,1.8
2019-05-16T06:30:21.753Z,1.7
2019-05-16T06:31:22.361Z,1.4
2019-05-16T06:32:21.843Z,1.8
2019-05-16T06:33:21.840Z,1.8
2019-05-16T06:34:21.818Z,1.5
2019-05-16T06:35:24.066Z,1.4
2019-05-16T06:36:22.115Z,1.5
2019-05-16T06:37:22.337Z,1.7
2019-05-16T06:38:22.333Z,1.7
2019-05-16T06:39:22.354Z,1.7
2019-05-16T06:40:22.354Z,1.4
2019-05-16T06:41:22.358Z,1.4
2019-05-16T06:42:22.388Z,1.5
2019-05-16T06:43:22.374Z,1.7
2019-05-16T06:44:22.394Z,1.7
2019-05-16T06:45:22.409Z,1.5
2019-05-16T06:46:22.399Z,1.4
2019-05-16T06:47:23.167Z,1.6
2019-05-16T06:48:22.556Z,1.3
2019-05-16T06:49:22.547Z,1.3
2019-05-16T06:50:22.728Z,1.6
2019-05-16T06:51:22.730Z,1.7
2019-05-16T06:52:22.744Z,1.5
2019-05-16T06:53:22.739Z,1.4
2019-05-16T06:54:22.745Z,1.4
2019-05-16T06:55:22.748Z,1.4
2019-05-16T06:56:22.747Z,1.5
2019-05-16T06:57:22.772Z,1.5
2019-05-16T06:58:22.764Z,1.5
2019-05-16T06:59:22.761Z,1.6
2019-05-16T07:00:22.763Z,1.5
2019-05-16T07:01:22.752Z,1.6
2019-05-16T07:02:29.794Z,1.4
2019-05-16T07:03:22.918Z,1.5
2019-05-16T07:04:22.928Z,1.5
2019-05-16T07:05:22.931Z,1.9
2019-05-16T07:06:46.266Z,1.7
2019-05-16T07:07:23.058Z,1.6
2019-05-16T07:08:23.083Z,1.9
2019-05-16T07:09:23.078Z,1.7
2019-05-16T07:10:23.067Z,1.8
2019-05-16T07:11:23.237Z,1.6
2019-05-16T07:12:23.260Z,1.6
2019-05-16T07:13:23.288Z,1.9
2019-05-16T07:14:23.483Z,1.6
2019-05-16T07:15:23.314Z,1.7
2019-05-16T07:16:23.323Z,1.8
2019-05-16T07:17:23.326Z,1.6
2019-05-16T07:18:23.365Z,1.9
2019-05-16T07:19:23.356Z,1.8
2019-05-16T07:20:23.366Z,1.4
2019-05-16T07:21:23.347Z,1.5
2019-05-16T07:22:23.373Z,1.6
2019-05-16T07:23:23.416Z,1.5
2019-05-16T07:24:23.431Z,1.9
2019-05-16T07:25:23.413Z,1.6
2019-05-16T07:26:23.408Z,1.3
2019-05-16T07:27:23.413Z,1.4
2019-05-16T07:28:23.437Z,1.8
2019-05-16T07:29:23.420Z,1.6
2019-05-16T07:30:23.448Z,1.5
2019-05-16T07:31:23.425Z,1.8
2019-05-16T07:32:23.583Z,1.7
2019-05-16T07:33:23.626Z,1.8
2019-05-16T07:34:23.630Z,1.7
2019-05-16T07:35:23.630Z,1.6
2019-05-16T07:36:23.622Z,1.6
2019-05-16T07:37:23.817Z,1.7
2019-05-16T07:38:23.833Z,1.5
2019-05-16T07:39:23.864Z,1.8
2019-05-16T07:40:26.853Z,1.9
2019-05-16T07:41:23.994Z,1.9
2019-05-16T07:42:24.005Z,1.7
2019-05-16T07:43:24.064Z,1.6
2019-05-16T07:44:24.091Z,1.7
2019-05-16T07:45:24.066Z,1.9
2019-05-16T07:46:24.067Z,1.9
2019-05-16T07:47:24.061Z,2.1
2019-05-16T07:48:24.099Z,1.8
2019-05-16T07:49:24.088Z,1.9
2019-05-16T07:50:25.240Z,1.9
2019-05-16T07:51:24.403Z,1.9
2019-05-16T07:52:24.418Z,2.2
2019-05-16T07:53:24.516Z,2.4
2019-05-16T07:54:24.550Z,2.6
2019-05-16T07:55:24.542Z,1.6
2019-05-16T07:56:25.681Z,2
2019-05-16T07:57:24.804Z,2.1
2019-05-16T07:58:24.975Z,1.8
2019-05-16T07:59:25.014Z,1.9
2019-05-16T08:00:41.863Z,2
2019-05-16T08:01:25.155Z,2.4
2019-05-16T08:02:25.146Z,1.8
2019-05-16T08:03:25.146Z,1.5
2019-05-16T08:04:25.166Z,2.7
2019-05-16T08:05:25.153Z,1.8
2019-05-16T08:06:25.315Z,1.8
2019-05-16T08:07:25.324Z,2.1
2019-05-16T08:08:25.314Z,1.9
2019-05-16T08:09:25.504Z,1.8
2019-05-16T08:10:37.742Z,2.3
2019-05-16T08:11:25.619Z,1.7
2019-05-16T08:12:26.565Z,1.7
2019-05-16T08:13:25.929Z,1.8
2019-05-16T08:14:26.131Z,1.7
2019-05-16T08:15:26.152Z,1.9
2019-05-16T08:16:26.142Z,2
2019-05-16T08:17:26.137Z,1.8
2019-05-16T08:18:26.140Z,2.2
2019-05-16T08:19:26.161Z,1.8
2019-05-16T08:20:26.163Z,1.7
2019-05-16T08:21:27.685Z,2
2019-05-16T08:22:26.310Z,1.9
2019-05-16T08:23:26.312Z,1.7
2019-05-16T08:24:26.365Z,2
2019-05-16T08:25:26.386Z,1.7
2019-05-16T08:26:26.389Z,2.2
2019-05-16T08:27:26.388Z,1.7
2019-05-16T08:28:26.373Z,1.7
2019-05-16T08:29:26.570Z,1.9
2019-05-16T08:30:26.612Z,1.8
2019-05-16T08:31:26.603Z,1.9
2019-05-16T08:32:26.624Z,1.8
2019-05-16T08:33:26.633Z,1.9
2019-05-16T08:34:26.764Z,1.8
2019-05-16T08:35:26.792Z,1.9
2019-05-16T08:36:26.784Z,2
2019-05-16T08:37:41.703Z,1.9
2019-05-16T08:38:26.916Z,1.9
2019-05-16T08:39:26.896Z,1.6
2019-05-16T08:40:27.224Z,1.8
2019-05-16T08:41:27.047Z,1.8
2019-05-16T08:42:27.081Z,1.9
2019-05-16T08:43:27.075Z,1.8
2019-05-16T08:44:27.079Z,1.6
2019-05-16T08:45:27.103Z,1.8
2019-05-16T08:46:27.091Z,2.1
2019-05-16T08:47:27.127Z,1.7
2019-05-16T08:48:27.125Z,1.7
2019-05-16T08:49:27.100Z,1.7
2019-05-16T08:50:27.335Z,1.7
2019-05-16T08:51:27.337Z,2.6
2019-05-16T08:52:27.336Z,2.7
2019-05-16T08:53:31.247Z,2.1
2019-05-16T08:54:27.359Z,2.1
2019-05-16T08:55:27.423Z,1.7
2019-05-16T08:56:31.415Z,2.1
2019-05-16T08:57:31.395Z,1.9
2019-05-16T08:58:27.535Z,1.8
2019-05-16T08:59:27.540Z,1.9
2019-05-16T09:00:27.564Z,1.9
2019-05-16T09:01:27.587Z,1.9
2019-05-16T09:02:32.939Z,1.9
2019-05-16T09:03:27.707Z,1.6
2019-05-16T09:04:33.247Z,1.8
2019-05-16T09:05:31.269Z,1.7
2019-05-16T09:06:31.610Z,1.7
2019-05-16T09:07:31.548Z,2
2019-05-16T09:08:28.151Z,1.8
2019-05-16T09:09:41.428Z,1.9
2019-05-16T09:10:55.477Z,1.7
2019-05-16T09:11:38.805Z,1.7
2019-05-16T09:42:30.957Z,1.9
2019-05-16T09:49:30.110Z,2
2019-05-16T09:50:30.287Z,2
2019-05-16T09:51:30.311Z,1.8
2019-05-16T09:52:30.335Z,1.9
2019-05-16T09:53:30.331Z,2.2
2019-05-16T09:54:30.322Z,1.9
2019-05-16T09:55:30.349Z,2.1
2019-05-16T09:56:30.333Z,2.1
2019-05-16T09:57:30.398Z,2.1
2019-05-16T09:58:30.410Z,1.9
2019-05-16T09:59:30.446Z,1.8
2019-05-16T10:00:30.479Z,2.2
2019-05-16T10:01:30.495Z,2.3
2019-05-16T10:02:30.496Z,2
2019-05-16T10:03:30.514Z,2.1
2019-05-16T10:04:30.552Z,2
2019-05-16T10:05:30.573Z,2.2
2019-05-16T10:06:30.596Z,2.4
2019-05-16T10:07:30.622Z,2.4
2019-05-16T10:08:30.661Z,2.5
2019-05-16T10:09:40.562Z,2.4
2019-05-16T10:10:30.799Z,2.4
2019-05-16T10:11:31.807Z,2.1
2019-05-16T10:12:30.788Z,2.4
2019-05-16T10:13:30.809Z,2.1
2019-05-16T10:14:30.825Z,2.1
2019-05-16T10:15:30.830Z,2.3
2019-05-16T10:16:30.812Z,2.3
2019-05-16T10:17:30.971Z,2.2
2019-05-16T10:18:31.149Z,2.4
2019-05-16T10:19:31.163Z,2.2
2019-05-16T10:20:31.165Z,2.5
2019-05-16T10:21:31.159Z,2.2
2019-05-16T10:22:31.154Z,2.5
2019-05-16T10:23:31.203Z,2
2019-05-16T10:24:31.204Z,2.4
2019-05-16T10:25:31.387Z,2.3
2019-05-16T10:26:31.371Z,2.2
2019-05-16T10:27:31.371Z,2.4
2019-05-16T10:28:31.426Z,2.1
2019-05-16T10:29:31.417Z,2.2
2019-05-16T10:30:31.425Z,2.3
2019-05-16T10:31:42.247Z,2.5
2019-05-16T10:32:32.707Z,2.3
2019-05-16T10:33:32.742Z,2.2
2019-05-16T10:34:32.716Z,2.6
2019-05-16T10:35:32.874Z,2.2
2019-05-16T10:36:33.046Z,2.3
2019-05-16T10:37:33.035Z,2.3
2019-05-16T10:38:33.061Z,2.6
2019-05-16T10:39:33.037Z,2.6
2019-05-16T10:40:33.182Z,2.1
2019-05-16T10:41:33.350Z,2.3
2019-05-16T10:42:33.346Z,2.3
2019-05-16T10:43:33.523Z,2.5
2019-05-16T10:44:33.516Z,2.4
2019-05-16T10:45:33.495Z,2.5
2019-05-16T10:46:33.635Z,2.4
2019-05-16T10:47:33.778Z,2.6
2019-05-16T10:48:33.930Z,2.3
2019-05-16T10:49:37.880Z,2.4
2019-05-16T10:50:34.167Z,2.2
2019-05-16T10:51:33.133Z,2.5
2019-05-16T10:52:36.356Z,2.4
2019-05-16T10:53:57.468Z,2.5
2019-05-16T10:54:36.690Z,2.6
2019-05-16T10:55:33.448Z,2.6
2019-05-16T10:56:34.462Z,2.5
2019-05-16T10:57:34.500Z,2.5
2019-05-16T10:58:37.871Z,2.7
2019-05-16T10:59:57.587Z,2.6
2019-05-16T11:01:04.918Z,2.6
2019-05-16T11:01:36.657Z,2.6
2019-05-16T11:02:34.071Z,2.8
2019-05-16T11:03:35.039Z,2.5
2019-05-16T11:04:50.594Z,2.5
2019-05-16T11:05:36.948Z,2.4
2019-05-16T11:06:37.203Z,2.4
2019-05-16T11:07:36.845Z,2.5
2019-05-16T11:08:37.129Z,2.3
2019-05-16T11:09:38.911Z,2.3
2019-05-16T11:10:37.279Z,2.4
2019-05-16T11:11:36.593Z,1.9
2019-05-16T11:12:46.983Z,2.4
2019-05-16T11:13:37.022Z,2.1
2019-05-16T11:14:37.004Z,2.2
2019-05-16T11:15:37.210Z,2.3
2019-05-16T11:16:36.768Z,2.2
2019-05-16T11:17:36.910Z,2.2
2019-05-16T11:18:37.475Z,2.6
2019-05-16T11:19:37.088Z,2.4
2019-05-16T11:20:37.149Z,2.3
2019-05-16T11:21:37.455Z,2.1
2019-05-16T11:22:36.960Z,1.8
2019-05-16T11:23:36.700Z,2.3
2019-05-16T11:24:37.539Z,2.3
2019-05-16T11:25:36.661Z,3.7
2019-05-16T11:26:36.715Z,4.5
2019-05-16T11:27:37.467Z,2.9
2019-05-16T11:28:36.721Z,2.4
2019-05-16T11:29:36.585Z,2.6
2019-05-16T11:30:37.513Z,2.3
2019-05-16T11:31:37.248Z,2.5
2019-05-16T11:32:37.384Z,2.7
2019-05-16T11:33:36.950Z,2.5
2019-05-16T11:34:37.368Z,2.5
2019-05-16T11:35:38.048Z,2.2
2019-05-16T11:36:37.585Z,2.4
2019-05-16T11:37:37.449Z,2.3
2019-05-16T11:38:37.800Z,2
2019-05-16T11:39:37.055Z,2.4
2019-05-16T11:40:36.223Z,2
2019-05-16T11:41:36.224Z,2.3
2019-05-16T11:42:37.711Z,2.2
2019-05-16T11:43:36.727Z,2.3
2019-05-16T11:44:38.020Z,2.3
2019-05-16T11:45:36.860Z,2.5
2019-05-16T11:46:37.423Z,2.4
2019-05-16T11:47:36.842Z,2.2
2019-05-16T11:48:37.616Z,2.1
2019-05-16T11:49:36.926Z,2.6
2019-05-16T11:50:37.344Z,2.3
2019-05-16T11:51:38.332Z,2.2
2019-05-16T11:52:40.350Z,2.2
2019-05-16T11:53:38.093Z,2.3
2019-05-16T11:54:37.537Z,2.5
2019-05-16T11:55:50.063Z,2.2
2019-05-16T11:56:37.999Z,2.1
2019-05-16T11:57:37.893Z,2.5
2019-05-16T11:58:37.120Z,2.4
2019-05-16T11:59:37.422Z,2.5
2019-05-16T12:00:37.338Z,2
2019-05-16T12:01:37.081Z,2
2019-05-16T12:02:38.121Z,2.2
2019-05-16T12:03:38.177Z,2.5
2019-05-16T12:04:37.635Z,2.5
2019-05-16T12:05:37.512Z,2.2
2019-05-16T12:06:37.515Z,2.1
2019-05-16T12:07:44.029Z,2.3
2019-05-16T12:08:38.513Z,2.7
2019-05-16T12:09:46.768Z,2.3
2019-05-16T12:10:38.657Z,2.5
2019-05-16T12:11:38.343Z,2.6
2019-05-16T12:12:37.742Z,2.4
2019-05-16T12:13:37.720Z,2.2
2019-05-16T12:14:37.893Z,2.4
2019-05-16T12:15:37.863Z,2.6
2019-05-16T12:16:38.107Z,2.2
2019-05-16T12:17:37.910Z,2.3
2019-05-16T12:18:37.891Z,2.3
2019-05-16T12:19:43.435Z,2.4
2019-05-16T12:20:39.100Z,2.4
2019-05-16T12:21:38.300Z,2.5
2019-05-16T12:22:38.306Z,2.9
2019-05-16T12:23:38.357Z,3
2019-05-16T12:24:41.251Z,2.7
2019-05-16T12:25:39.490Z,3.1
2019-05-16T12:26:38.654Z,3.1
2019-05-16T12:27:42.066Z,2.7
2019-05-16T12:28:39.673Z,2.7
2019-05-16T12:29:38.832Z,2.9
2019-05-16T12:30:40.354Z,3.1
2019-05-16T12:31:54.093Z,2.7
2019-05-16T12:32:39.977Z,2.7
2019-05-16T12:33:39.143Z,2.7
2019-05-16T12:34:39.131Z,2.9
2019-05-16T12:35:39.171Z,3
2019-05-16T12:36:39.274Z,2.6
2019-05-16T12:37:39.322Z,2.6
2019-05-16T12:38:39.323Z,2.8
2019-05-16T12:39:39.321Z,2.6
2019-05-16T12:40:39.363Z,2.9
2019-05-16T12:41:41.265Z,3
2019-05-16T12:42:39.428Z,2.7
2019-05-16T12:43:48.459Z,2.5
2019-05-16T12:44:40.540Z,2.8
2019-05-16T12:47:39.763Z,2.8
2019-05-16T12:48:39.786Z,2.8
2019-05-16T12:49:39.804Z,2.7
2019-05-16T12:50:39.804Z,2.9
2019-05-16T12:51:39.853Z,2.6
2019-05-16T12:52:39.904Z,2.7
2019-05-16T12:53:39.914Z,3.3
2019-05-16T12:54:40.068Z,7.5
2019-05-16T12:55:40.257Z,5.8
2019-05-16T12:56:40.275Z,3.2
2019-05-16T12:57:40.319Z,2.9
2019-05-16T12:58:42.120Z,2.9
2019-05-16T12:59:42.110Z,2.7
2019-05-16T13:00:43.969Z,2.7
2019-05-16T13:01:40.730Z,2.8
2019-05-16T13:02:40.935Z,2.6
2019-05-16T13:03:40.986Z,2.5
2019-05-16T13:04:40.986Z,2.7
2019-05-16T13:05:40.962Z,2.8
2019-05-16T13:06:41.126Z,2.7
2019-05-16T13:07:41.174Z,2.8
2019-05-16T13:08:41.293Z,2.6
2019-05-16T13:09:41.276Z,2.6
2019-05-16T13:10:41.283Z,2.9
2019-05-16T13:11:41.310Z,2.9
2019-05-16T13:12:41.355Z,2.8
2019-05-16T13:13:41.407Z,2.8
2019-05-16T13:14:42.389Z,2.8
2019-05-16T13:15:42.317Z,2.9
2019-05-16T13:16:41.549Z,2.8
2019-05-16T13:17:41.587Z,3.2
2019-05-16T13:18:41.601Z,2.9
2019-05-16T13:19:44.024Z,3.1
2019-05-16T13:20:42.735Z,2.9
2019-05-16T13:21:42.901Z,2.7
2019-05-16T13:22:42.941Z,3.2
2019-05-16T13:23:42.940Z,2.7
2019-05-16T13:24:42.967Z,2.9
2019-05-16T13:25:42.938Z,2.8
2019-05-16T13:26:43.138Z,2.9
2019-05-16T13:27:43.108Z,2.9
2019-05-16T13:28:43.122Z,3.1
2019-05-16T13:29:43.279Z,2.9
2019-05-16T13:30:43.112Z,3.1
2019-05-16T13:31:43.301Z,3.1
2019-05-16T13:32:43.269Z,3.2
2019-05-16T13:33:42.453Z,2.7
2019-05-16T13:34:42.463Z,2.9
2019-05-16T13:35:42.437Z,3.6
2019-05-16T13:36:43.585Z,3.4
2019-05-16T13:37:43.746Z,3.1
2019-05-16T13:38:43.856Z,3.3
2019-05-16T13:39:43.856Z,3.2
2019-05-16T13:40:43.854Z,3.3
2019-05-16T13:41:42.856Z,3
2019-05-16T13:42:42.852Z,3.3
2019-05-16T13:43:43.913Z,3.1
2019-05-16T13:44:42.940Z,3.1
2019-05-16T13:45:43.915Z,2.9
2019-05-16T13:46:43.901Z,3.2
2019-05-16T13:47:43.044Z,2.9
2019-05-16T13:48:44.219Z,2.7
2019-05-16T13:49:43.276Z,3.3
2019-05-16T13:50:43.266Z,3
2019-05-16T13:51:44.425Z,3.1
2019-05-16T13:52:43.420Z,2.6
2019-05-16T13:53:44.396Z,3
2019-05-16T13:54:43.619Z,2.9
2019-05-16T13:55:43.608Z,2.8
2019-05-16T13:56:43.627Z,3.1
2019-05-16T13:57:44.611Z,2.9
2019-05-16T13:58:43.749Z,3
2019-05-16T13:59:44.920Z,3
2019-05-16T14:00:43.960Z,3.5
2019-05-16T14:01:44.933Z,3.4
2019-05-16T14:02:44.146Z,3
2019-05-16T14:03:44.150Z,2.8
2019-05-16T14:04:45.183Z,2.9
2019-05-16T14:05:44.187Z,2.9
2019-05-16T14:06:47.326Z,3.3
2019-05-16T14:07:44.338Z,3.2
2019-05-16T14:08:46.764Z,3.2
2019-05-16T14:09:46.939Z,2.8
2019-05-16T14:10:47.915Z,3
2019-05-16T14:11:46.379Z,3.1
2019-05-16T14:12:44.427Z,3.1
2019-05-16T14:13:46.911Z,3
2019-05-16T14:14:44.741Z,3
2019-05-16T14:15:47.247Z,3
2019-05-16T14:16:46.858Z,3.2
2019-05-16T14:17:44.812Z,3
2019-05-16T14:18:46.820Z,2.8
2019-05-16T14:19:47.681Z,3.1
2019-05-16T14:20:46.567Z,2.9
2019-05-16T14:21:47.556Z,3
2019-05-16T14:22:45.074Z,2.8
2019-05-16T14:23:52.778Z,3
2019-05-16T14:24:48.078Z,2.9
2019-05-16T14:25:47.938Z,3.2
2019-05-16T14:26:46.510Z,3.1
2019-05-16T14:27:47.483Z,3.4
2019-05-16T14:28:48.730Z,2.9
2019-05-16T14:29:47.628Z,2.9
2019-05-16T14:30:46.735Z,3.1
2019-05-16T14:31:46.906Z,3.2
2019-05-16T14:32:50.402Z,3.3
2019-05-16T14:33:47.373Z,3.4
2019-05-16T14:34:50.431Z,3
2019-05-16T14:35:47.423Z,3.4
2019-05-16T14:36:47.331Z,3.3
2019-05-16T14:37:46.832Z,3.5
2019-05-16T14:38:46.765Z,3.2
2019-05-16T14:39:48.697Z,3.4
2019-05-16T14:40:49.916Z,3.4
2019-05-16T14:41:47.277Z,3.6
2019-05-16T14:42:47.856Z,3
2019-05-16T14:43:46.874Z,3.6
2019-05-16T14:45:03.424Z,3.1
2019-05-16T14:45:47.761Z,3.9
2019-05-16T14:46:47.442Z,5.6
2019-05-16T14:47:47.619Z,3.1
2019-05-16T14:48:46.779Z,3
2019-05-16T14:49:48.739Z,3
2019-05-16T14:50:47.222Z,3.8
2019-05-16T14:51:47.566Z,4
2019-05-16T14:52:47.303Z,4.4
2019-05-16T14:53:47.199Z,3.5
2019-05-16T14:54:47.069Z,3.5
2019-05-16T14:55:47.636Z,3.5
2019-05-16T14:56:47.632Z,4.3
2019-05-16T14:57:47.361Z,3.9
2019-05-16T14:58:48.366Z,5.1
2019-05-16T14:59:47.265Z,4.7
2019-05-16T15:00:48.901Z,4.3
2019-05-16T15:01:47.483Z,3.9
2019-05-16T15:02:47.933Z,3.7
2019-05-16T15:03:47.492Z,3.6
2019-05-16T15:04:49.486Z,3.5
2019-05-16T15:05:47.970Z,3.6